Time;durP1;ratioP1;P1;durP2;ratioP2;P2;SDS_P1;SDS_P2;PMS_P1;PMS_P2;Temp;Humidity;BMP_temperature;BMP_pressure;BME280_temperature;BME280_humidity;BME280_pressure;Samples;Min_cycle;Max_cycle;Signal;HPM_P1;HPM_P2
2021/10/15 00:00:19;;;;;;;;;;;;;;;12.33;85.04;101610.63;5073042;28;19963;-56
2021/10/15 00:02:46;;;;;;;;;;;;;;;12.31;85.06;101601.94;5105292;28;20002;-56
2021/10/15 00:05:12;;;;;;;;;;;;;;;12.29;85.11;101595.94;5072832;28;19929;-57
2021/10/15 00:07:39;;;;;;;;;;;;;;;12.23;85.55;101585.75;5073039;28;19974;-56
2021/10/15 00:10:07;;;;;;;;;;;;;;;12.22;85.63;101582.28;5072596;28;19924;-55
2021/10/15 00:12:33;;;;;;;;;;;;;;;12.16;85.66;101578.22;5068453;28;19924;-55
2021/10/15 00:15:00;;;;;;;;;;;;;;;12.13;85.62;101585.44;5069120;28;20384;-57
2021/10/15 00:17:27;;;;;;;;;;;;;;;12.10;85.86;101583.84;5105162;28;19951;-57
2021/10/15 00:19:53;;;;;;;;;;;;;;;12.13;85.79;101583.69;5072769;28;20299;-56
2021/10/15 00:22:20;;;;;;;;;;;;;;;12.15;86.10;101571.25;5072926;28;19974;-56
2021/10/15 00:24:47;;;;;;;;;;;;;;;12.10;86.29;101578.56;5105123;28;20434;-56
2021/10/15 00:27:13;;;;;;;;;;;;;;;12.12;86.45;101575.84;5072657;28;19978;-52
2021/10/15 00:29:40;;;;;;;;;;;;;;;12.15;86.17;101578.31;5072819;28;19925;-50
2021/10/15 00:32:07;;;;;;;;;;;;;;;12.16;86.04;101578.22;5071575;28;19925;-52
2021/10/15 00:34:34;;;;;;;;;;;;;;;12.10;86.47;101575.09;5069789;28;20405;-51
2021/10/15 00:37:00;;;;;;;;;;;;;;;12.16;86.56;101566.81;5071454;28;19970;-49
2021/10/15 00:39:27;;;;;;;;;;;;;;;12.10;86.60;101559.28;5104380;28;19975;-47
2021/10/15 00:41:53;;;;;;;;;;;;;;;12.05;86.84;101556.06;5072226;28;19924;-49
2021/10/15 00:44:20;;;;;;;;;;;;;;;12.03;86.99;101552.69;5104935;28;19924;-48
2021/10/15 00:46:47;;;;;;;;;;;;;;;12.00;87.41;101553.72;5105068;28;19924;-50
2021/10/15 00:49:14;;;;;;;;;;;;;;;12.02;87.39;101549.19;5070722;28;19932;-46
2021/10/15 00:51:44;;;;;;;;;;;;;;;12.09;86.82;101550.53;5102373;28;19935;-45
2021/10/15 00:54:11;;;;;;;;;;;;;;;12.00;87.33;101543.16;5072232;28;19924;-52
2021/10/15 00:56:38;;;;;;;;;;;;;;;12.00;87.24;101536.09;5072386;28;19924;-47
2021/10/15 00:59:05;;;;;;;;;;;;;;;11.96;87.64;101539.88;5104754;28;19924;-52
2021/10/15 01:01:31;;;;;;;;;;;;;;;11.97;87.48;101540.69;5071265;28;19934;-49
2021/10/15 01:03:59;;;;;;;;;;;;;;;11.95;87.97;101535.53;5102147;28;20019;-51
2021/10/15 01:06:26;;;;;;;;;;;;;;;11.93;88.33;101532.13;5072027;28;20394;-49
2021/10/15 01:08:52;;;;;;;;;;;;;;;11.96;87.87;101534.59;5104512;28;19929;-52
2021/10/15 01:11:19;;;;;;;;;;;;;;;11.94;88.11;101533.84;5072451;28;19947;-57
2021/10/15 01:13:46;;;;;;;;;;;;;;;11.91;88.36;101535.78;5072199;28;19924;-56
2021/10/15 01:16:13;;;;;;;;;;;;;;;11.91;88.21;101528.72;5104505;28;20391;-56
2021/10/15 01:18:41;;;;;;;;;;;;;;;11.90;88.31;101529.66;5070097;28;19924;-56
2021/10/15 01:21:08;;;;;;;;;;;;;;;11.92;88.52;101522.50;5069385;28;20388;-56
2021/10/15 01:23:35;;;;;;;;;;;;;;;11.99;88.10;101521.22;5072332;28;20560;-56
2021/10/15 01:26:01;;;;;;;;;;;;;;;11.98;87.67;101510.78;5072416;28;19978;-57
2021/10/15 01:28:28;;;;;;;;;;;;;;;11.92;88.19;101522.50;5072135;28;20056;-57
2021/10/15 01:30:55;;;;;;;;;;;;;;;11.87;88.90;101521.91;5073201;28;19924;-49
2021/10/15 01:33:22;;;;;;;;;;;;;;;11.88;88.96;101517.53;5108378;28;20027;-50
2021/10/15 01:35:48;;;;;;;;;;;;;;;11.89;88.97;101514.78;5055407;28;19982;-46
2021/10/15 01:38:15;;;;;;;;;;;;;;;11.87;89.00;101511.38;5071484;28;19946;-48
2021/10/15 01:40:43;;;;;;;;;;;;;;;11.90;88.93;101513.00;5074451;28;19925;-46
2021/10/15 01:43:20;;;;;;;;;;;;;;;11.91;88.89;101510.25;5104787;28;19931;-46
2021/10/15 01:45:46;;;;;;;;;;;;;;;11.89;89.42;101511.28;5105623;28;19928;-45
2021/10/15 01:48:13;;;;;;;;;;;;;;;11.88;89.09;101518.34;5075145;28;19940;-57
2021/10/15 01:50:40;;;;;;;;;;;;;;;11.87;89.56;101507.91;5107466;28;20033;-57
2021/10/15 01:53:07;;;;;;;;;;;;;;;11.87;89.69;101500.84;5074893;28;20437;-57
2021/10/15 01:55:33;;;;;;;;;;;;;;;11.98;89.10;101489.69;5107207;28;19993;-56
2021/10/15 01:58:00;;;;;;;;;;;;;;;11.84;89.84;101482.59;5074794;28;19932;-56
2021/10/15 02:00:27;;;;;;;;;;;;;;;11.84;89.80;101482.59;5071960;28;19932;-56
2021/10/15 02:02:53;;;;;;;;;;;;;;;11.81;89.99;101478.34;5072088;28;19932;-51
2021/10/15 02:05:21;;;;;;;;;;;;;;;11.82;90.29;101477.41;5075058;28;19925;-51
2021/10/15 02:07:48;;;;;;;;;;;;;;;11.83;90.13;101465.06;5074797;28;20217;-56
2021/10/15 02:10:15;;;;;;;;;;;;;;;11.90;90.23;101469.03;5107409;28;20379;-57
2021/10/15 02:12:42;;;;;;;;;;;;;;;11.86;90.52;101464.03;5074908;28;19924;-56
2021/10/15 02:15:10;;;;;;;;;;;;;;;11.87;90.38;101463.94;5074948;28;20268;-56
2021/10/15 02:17:37;;;;;;;;;;;;;;;11.91;90.69;101456.69;5074607;28;19928;-55
2021/10/15 02:20:05;;;;;;;;;;;;;;;11.83;90.72;101438.72;5104508;28;19978;-54
2021/10/15 02:22:32;;;;;;;;;;;;;;;11.89;90.75;101442.75;5105047;28;20291;-56
2021/10/15 02:24:59;;;;;;;;;;;;;;;11.86;90.93;101440.31;5074738;28;19951;-56
2021/10/15 02:27:26;;;;;;;;;;;;;;;11.88;90.87;101444.56;5107033;28;19928;-56
2021/10/15 02:29:52;;;;;;;;;;;;;;;11.88;91.37;101449.84;5106840;28;19931;-56
2021/10/15 02:32:19;;;;;;;;;;;;;;;11.84;91.33;101438.63;5073318;28;19960;-55
2021/10/15 02:34:46;;;;;;;;;;;;;;;11.87;91.21;101436.75;5106947;28;20379;-56
2021/10/15 02:37:12;;;;;;;;;;;;;;;11.90;91.27;101431.28;5073408;28;19970;-56
2021/10/15 02:39:39;;;;;;;;;;;;;;;11.86;91.44;101433.25;5073032;28;19930;-56
2021/10/15 02:42:05;;;;;;;;;;;;;;;11.87;91.38;101429.69;5074605;28;19974;-56
2021/10/15 02:44:34;;;;;;;;;;;;;;;11.87;91.18;101419.13;5069864;28;19937;-55
2021/10/15 02:47:01;;;;;;;;;;;;;;;11.83;91.68;101421.13;5103895;28;19960;-52
2021/10/15 02:49:28;;;;;;;;;;;;;;;11.81;92.01;101419.53;5074224;28;20370;-49
2021/10/15 02:51:58;;;;;;;;;;;;;;;11.77;91.98;101412.75;5073847;28;19970;-46
2021/10/15 02:54:25;;;;;;;;;;;;;;;11.78;91.64;101403.88;5071779;28;19932;-48
2021/10/15 02:56:52;;;;;;;;;;;;;;;11.79;91.50;101397.69;5071036;28;19977;-51
2021/10/15 02:59:18;;;;;;;;;;;;;;;11.78;91.77;101399.47;5073321;28;19928;-50
2021/10/15 03:01:45;;;;;;;;;;;;;;;11.77;92.16;101407.47;5074205;28;19924;-46
2021/10/15 03:04:12;;;;;;;;;;;;;;;11.81;91.75;101404.56;5073902;28;19932;-44
2021/10/15 03:06:38;;;;;;;;;;;;;;;11.76;91.44;101390.81;5073728;28;19924;-46
2021/10/15 03:11:50;;;;;;;;;;;;;;;11.77;91.96;101392.50;5073917;28;19925;-44
2021/10/15 03:14:17;;;;;;;;;;;;;;;11.71;92.06;101389.41;5104549;28;19932;-45
2021/10/15 03:16:44;;;;;;;;;;;;;;;11.69;92.43;101401.84;5071047;28;19963;-50
2021/10/15 03:19:10;;;;;;;;;;;;;;;11.68;92.45;101387.78;5071593;28;19964;-49
2021/10/15 03:21:37;;;;;;;;;;;;;;;11.71;92.33;101385.00;5073583;28;19928;-49
2021/10/15 03:24:04;;;;;;;;;;;;;;;11.70;92.37;101383.28;5071099;28;20181;-49
2021/10/15 03:26:30;;;;;;;;;;;;;;;11.69;92.14;101384.22;5070160;28;19929;-52
2021/10/15 03:28:57;;;;;;;;;;;;;;;11.67;92.20;101379.06;5073312;28;20406;-48
2021/10/15 03:31:24;;;;;;;;;;;;;;;11.67;92.47;101371.16;5073327;28;19947;-46
2021/10/15 03:33:50;;;;;;;;;;;;;;;11.72;92.26;101377.94;5073408;28;20307;-49
2021/10/15 03:36:17;;;;;;;;;;;;;;;11.73;92.35;101369.91;5071024;28;20901;-50
2021/10/15 03:38:44;;;;;;;;;;;;;;;11.68;92.50;101366.72;5070502;28;20469;-49
2021/10/15 03:41:10;;;;;;;;;;;;;;;11.75;92.24;101369.81;5073037;28;20018;-47
2021/10/15 03:43:37;;;;;;;;;;;;;;;11.74;92.56;101374.25;5072034;28;20440;-49
2021/10/15 03:46:04;;;;;;;;;;;;;;;11.67;92.71;101365.88;5073191;28;19928;-51
2021/10/15 03:48:31;;;;;;;;;;;;;;;11.66;93.05;101369.44;5072767;28;19970;-48
2021/10/15 03:50:57;;;;;;;;;;;;;;;11.70;92.55;101369.25;5072941;28;19924;-46
2021/10/15 03:53:24;;;;;;;;;;;;;;;11.67;92.75;101365.88;5105437;28;19928;-49
2021/10/15 03:55:50;;;;;;;;;;;;;;;11.67;92.90;101365.03;5069897;28;20458;-48
2021/10/15 03:58:17;;;;;;;;;;;;;;;11.69;92.98;101355.25;5069959;28;19954;-47
2021/10/15 04:00:44;;;;;;;;;;;;;;;11.67;93.11;101359.78;5073474;28;20035;-55
2021/10/15 04:03:11;;;;;;;;;;;;;;;11.64;93.33;101368.72;5072926;28;19932;-56
2021/10/15 04:05:37;;;;;;;;;;;;;;;11.66;93.58;101364.19;5072160;28;19925;-56
2021/10/15 04:08:04;;;;;;;;;;;;;;;11.65;93.63;101356.38;5072660;28;19928;-56
2021/10/15 04:10:30;;;;;;;;;;;;;;;11.65;93.50;101351.09;5072461;28;20345;-56
2021/10/15 04:12:57;;;;;;;;;;;;;;;11.65;93.25;101351.09;5069186;28;19924;-56
2021/10/15 04:15:24;;;;;;;;;;;;;;;11.64;93.72;101358.19;5069523;28;20375;-56
2021/10/15 04:17:50;;;;;;;;;;;;;;;11.67;93.50;101355.34;5071449;28;19924;-56
2021/10/15 04:20:17;;;;;;;;;;;;;;;11.74;93.26;101352.31;5072986;28;19948;-56
2021/10/15 04:22:43;;;;;;;;;;;;;;;11.70;93.49;101345.53;5072859;28;20299;-56
2021/10/15 04:25:10;;;;;;;;;;;;;;;11.76;93.51;101342.53;5072759;28;19978;-56
2021/10/15 04:27:37;;;;;;;;;;;;;;;11.70;93.90;101343.78;5072868;28;19925;-57
2021/10/15 04:30:04;;;;;;;;;;;;;;;11.71;93.59;101337.56;5068746;28;19931;-54
2021/10/15 04:32:32;;;;;;;;;;;;;;;11.77;93.61;101328.44;5067552;28;19932;-56
2021/10/15 04:34:59;;;;;;;;;;;;;;;11.72;93.75;101333.97;5072214;28;20295;-56
2021/10/15 04:37:25;;;;;;;;;;;;;;;11.72;93.49;101338.41;5072113;28;19924;-56
2021/10/15 04:39:52;;;;;;;;;;;;;;;11.72;93.99;101333.13;5069343;28;19947;-55
2021/10/15 04:42:19;;;;;;;;;;;;;;;11.79;93.68;101337.06;5052210;28;19928;-55
2021/10/15 04:44:46;;;;;;;;;;;;;;;11.77;93.66;101329.25;5072479;28;19928;-56
2021/10/15 04:47:13;;;;;;;;;;;;;;;11.75;93.57;101328.53;5072372;28;20370;-56
2021/10/15 04:49:39;;;;;;;;;;;;;;;11.73;94.08;101326.94;5104612;28;19932;-57
2021/10/15 04:52:06;;;;;;;;;;;;;;;11.72;94.33;101335.78;5071031;28;19974;-56
2021/10/15 04:54:32;;;;;;;;;;;;;;;11.78;93.81;101330.09;5072300;28;20380;-57
2021/10/15 04:56:59;;;;;;;;;;;;;;;11.79;94.04;101314.22;5072000;28;19925;-54
2021/10/15 04:59:26;;;;;;;;;;;;;;;11.77;94.42;101317.88;5104712;28;19974;-57
2021/10/15 05:01:52;;;;;;;;;;;;;;;11.77;94.43;101317.88;5074993;28;19925;-56
2021/10/15 05:04:20;;;;;;;;;;;;;;;11.78;94.62;101316.91;5076189;28;19970;-56
2021/10/15 05:06:46;;;;;;;;;;;;;;;11.86;94.20;101317.28;5075438;28;19978;-57
2021/10/15 05:09:25;;;;;;;;;;;;;;;11.83;94.55;101321.00;5072760;28;20378;-57
2021/10/15 05:11:52;;;;;;;;;;;;;;;11.80;95.03;101307.97;5103974;28;20319;-57
2021/10/15 05:14:19;;;;;;;;;;;;;;;11.81;95.15;101314.94;5108518;28;19924;-57
2021/10/15 05:16:45;;;;;;;;;;;;;;;11.86;95.44;101319.91;5076209;28;19962;-56
2021/10/15 05:19:12;;;;;;;;;;;;;;;11.84;95.65;101314.75;5075882;28;19924;-56
2021/10/15 05:21:39;;;;;;;;;;;;;;;11.87;95.59;101324.25;5076000;28;20402;-56
2021/10/15 05:24:05;;;;;;;;;;;;;;;11.82;96.34;101314.03;5075865;28;19932;-57
2021/10/15 05:26:32;;;;;;;;;;;;;;;11.87;96.66;101312.88;5076101;28;20417;-58
2021/10/15 05:28:59;;;;;;;;;;;;;;;11.90;97.10;101307.41;5074408;28;19981;-57
2021/10/15 05:31:25;;;;;;;;;;;;;;;11.87;97.47;101312.88;5075776;28;19928;-56
2021/10/15 05:33:52;;;;;;;;;;;;;;;11.86;98.14;101306.75;5075329;28;19952;-57
2021/10/15 05:36:19;;;;;;;;;;;;;;;11.81;98.35;101285.13;5071728;28;19931;-48
2021/10/15 05:38:45;;;;;;;;;;;;;;;11.81;98.74;101295.66;5072482;28;19931;-46
2021/10/15 05:41:12;;;;;;;;;;;;;;;11.79;99.11;101287.88;5075352;28;19932;-46
2021/10/15 05:43:39;;;;;;;;;;;;;;;11.84;98.28;101287.56;5071544;28;19925;-46
2021/10/15 05:46:05;;;;;;;;;;;;;;;11.89;98.49;101303.94;5072063;28;20023;-48
2021/10/15 05:48:32;;;;;;;;;;;;;;;11.85;98.66;101289.25;5075416;28;19924;-49
2021/10/15 05:50:59;;;;;;;;;;;;;;;11.85;98.60;101291.91;5107657;28;20388;-48
2021/10/15 05:53:26;;;;;;;;;;;;;;;11.82;98.79;101289.44;5088714;28;20327;-49
2021/10/15 06:01:13;;;;;;;;;;;;;;;11.88;97.94;101283.78;5075317;28;20403;-57
2021/10/15 06:03:43;;;;;;;;;;;;;;;11.89;98.09;101284.63;5075248;28;19924;-46
2021/10/15 06:14:27;;;;;;;;;;;;;;;11.87;98.24;101291.81;5075273;28;19970;-47
2021/10/15 06:16:56;;;;;;;;;;;;;;;11.91;97.91;101283.59;5106531;28;19924;-47
2021/10/15 06:19:25;;;;;;;;;;;;;;;11.90;98.06;101283.69;5074760;28;19932;-46
2021/10/15 06:21:52;;;;;;;;;;;;;;;11.87;98.56;101294.44;5072100;28;20368;-47
2021/10/15 06:24:18;;;;;;;;;;;;;;;11.89;98.61;101292.53;5072862;28;19924;-48
2021/10/15 06:26:45;;;;;;;;;;;;;;;11.90;98.64;101286.31;5073089;28;20368;-51
2021/10/15 06:29:12;;;;;;;;;;;;;;;11.92;98.58;101292.34;5070277;28;20955;-50
2021/10/15 06:31:40;;;;;;;;;;;;;;;11.93;98.62;101280.84;5073665;28;19925;-48
2021/10/15 06:34:07;;;;;;;;;;;;;;;11.93;98.61;101292.25;5074480;28;19924;-51
2021/10/15 06:36:33;;;;;;;;;;;;;;;11.94;98.66;101299.25;5074359;28;19931;-49
2021/10/15 06:39:00;;;;;;;;;;;;;;;11.95;98.35;101303.56;5074321;28;19928;-49
2021/10/15 06:41:28;;;;;;;;;;;;;;;11.93;98.84;101301.94;5103852;28;19978;-50
2021/10/15 06:43:54;;;;;;;;;;;;;;;12.02;98.36;101304.03;5070991;28;19951;-50
2021/10/15 06:46:21;;;;;;;;;;;;;;;11.96;99.27;101312.34;5072086;28;20399;-53
2021/10/15 06:48:48;;;;;;;;;;;;;;;11.94;99.82;101309.81;5074286;28;20002;-47
2021/10/15 06:51:15;;;;;;;;;;;;;;;11.90;100.00;101308.28;5073343;28;19928;-53
2021/10/15 06:53:41;;;;;;;;;;;;;;;11.90;100.00;101318.81;5071430;28;19929;-53
2021/10/15 06:56:08;;;;;;;;;;;;;;;11.90;100.00;101324.09;5072536;28;19931;-50
2021/10/15 06:58:35;;;;;;;;;;;;;;;11.91;100.00;101333.66;5073640;28;19982;-49
2021/10/15 07:01:02;;;;;;;;;;;;;;;11.91;100.00;101338.09;5070123;28;19925;-57
2021/10/15 07:03:29;;;;;;;;;;;;;;;11.89;100.00;101339.97;5071035;28;20925;-58
2021/10/15 07:05:55;;;;;;;;;;;;;;;11.91;100.00;101375.00;5089448;28;19929;-58
2021/10/15 07:08:27;;;;;;;;;;;;;;;11.74;100.00;101432.22;5073972;28;20371;-57
2021/10/15 07:10:53;;;;;;;;;;;;;;;11.60;100.00;101427.81;5073993;28;19925;-57
2021/10/15 07:13:20;;;;;;;;;;;;;;;11.56;100.00;101431.56;5072837;28;19924;-48
2021/10/15 07:15:49;;;;;;;;;;;;;;;11.43;100.00;101435.84;5072201;28;20450;-49
2021/10/15 07:18:16;;;;;;;;;;;;;;;11.45;100.00;101440.09;5070710;28;19978;-51
2021/10/15 07:20:43;;;;;;;;;;;;;;;11.49;100.00;101444.25;5104181;28;20019;-50
2021/10/15 07:23:11;;;;;;;;;;;;;;;11.40;100.00;101449.19;5105561;28;19929;-49
2021/10/15 07:25:38;;;;;;;;;;;;;;;11.49;100.00;101456.53;5073563;28;19924;-49
2021/10/15 07:28:05;;;;;;;;;;;;;;;11.49;100.00;101459.19;5105832;28;20002;-56
2021/10/15 07:30:37;;;;;;;;;;;;;;;11.49;100.00;101467.09;5073627;28;20394;-49
2021/10/15 07:33:03;;;;;;;;;;;;;;;11.35;100.00;101475.81;5073646;28;20003;-47
2021/10/15 07:35:30;;;;;;;;;;;;;;;11.40;100.00;101478.16;5071121;28;20394;-57
2021/10/15 07:37:56;;;;;;;;;;;;;;;11.17;98.30;101480.34;5102622;28;19978;-49
2021/10/15 07:40:23;;;;;;;;;;;;;;;11.10;100.00;101492.19;5072616;28;20011;-48
2021/10/15 07:42:50;;;;;;;;;;;;;;;11.12;100.00;101495.56;5073219;28;19932;-45
2021/10/15 07:45:16;;;;;;;;;;;;;;;11.08;99.38;101507.19;5073134;28;19928;-45
2021/10/15 07:47:57;;;;;;;;;;;;;;;11.11;100.00;101510.53;5073284;28;19924;-51
2021/10/15 07:50:24;;;;;;;;;;;;;;;11.26;99.57;101519.31;5073269;28;19928;-45
2021/10/15 07:52:50;;;;;;;;;;;;;;;11.18;98.55;101518.06;5102856;28;19928;-47
2021/10/15 07:55:17;;;;;;;;;;;;;;;11.16;98.96;101528.69;5069964;28;19936;-49
2021/10/15 07:57:44;;;;;;;;;;;;;;;11.21;99.02;101533.66;5105523;28;19924;-47
2021/10/15 08:00:10;;;;;;;;;;;;;;;11.18;98.26;101534.72;5105471;28;20042;-48
2021/10/15 08:02:37;;;;;;;;;;;;;;;11.17;98.34;101533.00;5073098;28;19979;-52
2021/10/15 08:05:04;;;;;;;;;;;;;;;11.02;98.97;101534.72;5073029;28;19924;-50
2021/10/15 08:07:31;;;;;;;;;;;;;;;11.14;99.34;101536.66;5087900;28;19970;-48
2021/10/15 08:09:58;;;;;;;;;;;;;;;11.16;99.74;101536.56;5069934;28;20391;-47
2021/10/15 08:12:24;;;;;;;;;;;;;;;11.16;98.65;101545.31;5070326;28;19924;-49
2021/10/15 08:14:51;;;;;;;;;;;;;;;11.23;98.86;101551.06;5072837;28;19975;-47
2021/10/15 08:17:18;;;;;;;;;;;;;;;11.17;99.17;101546.19;5105465;28;19924;-49
2021/10/15 08:19:44;;;;;;;;;;;;;;;11.15;97.83;101553.28;5070186;28;19932;-48
2021/10/15 08:22:11;;;;;;;;;;;;;;;11.18;98.36;101561.03;5069556;28;19924;-52
2021/10/15 08:24:38;;;;;;;;;;;;;;;11.17;97.64;101564.59;5072702;28;19924;-50
2021/10/15 08:27:04;;;;;;;;;;;;;;;11.23;98.38;101571.31;5072614;28;19947;-51
2021/10/15 08:29:31;;;;;;;;;;;;;;;11.16;96.92;101569.00;5072842;28;19977;-52
2021/10/15 08:31:58;;;;;;;;;;;;;;;11.14;97.79;101567.41;5071558;28;20275;-51
2021/10/15 08:34:25;;;;;;;;;;;;;;;11.16;98.14;101581.31;5070016;28;19925;-46
2021/10/15 08:36:53;;;;;;;;;;;;;;;11.18;97.36;101571.56;5072364;28;20011;-50
2021/10/15 08:39:22;;;;;;;;;;;;;;;11.30;97.86;101578.78;5075931;28;19924;-51
2021/10/15 08:41:48;;;;;;;;;;;;;;;11.20;97.37;101576.75;5074000;28;20403;-51
2021/10/15 08:44:15;;;;;;;;;;;;;;;11.18;96.34;101587.38;5106927;28;19928;-51
2021/10/15 08:46:42;;;;;;;;;;;;;;;11.10;97.42;101597.47;5076792;28;19991;-51
2021/10/15 08:49:28;;;;;;;;;;;;;;;11.06;98.21;101590.69;5089486;28;20396;-50
2021/10/15 08:51:55;;;;;;;;;;;;;;;11.13;98.20;101600.78;5108684;28;19982;-49
2021/10/15 08:54:21;;;;;;;;;;;;;;;11.33;97.69;101604.09;5105604;28;19925;-50
2021/10/15 08:56:48;;;;;;;;;;;;;;;11.35;97.71;101599.56;5073311;28;20035;-52
2021/10/15 08:59:23;;;;;;;;;;;;;;;11.44;97.77;101611.41;5108750;28;19928;-52
2021/10/15 09:01:50;;;;;;;;;;;;;;;11.48;99.19;101610.28;5074846;28;19925;-47
2021/10/15 09:04:18;;;;;;;;;;;;;;;11.55;100.00;101608.97;5075898;28;19929;-47
2021/10/15 09:06:47;;;;;;;;;;;;;;;11.63;99.18;101606.75;5074607;28;19951;-47
2021/10/15 09:09:14;;;;;;;;;;;;;;;11.70;98.72;101614.28;5071593;28;19928;-45
2021/10/15 09:11:41;;;;;;;;;;;;;;;11.75;97.87;101617.53;5074885;28;19932;-47
2021/10/15 09:14:11;;;;;;;;;;;;;;;11.82;99.13;101622.34;5075900;28;19925;-48
2021/10/15 09:16:56;;;;;;;;;;;;;;;11.79;97.98;101634.84;5075477;28;20728;-52
2021/10/15 09:19:30;;;;;;;;;;;;;;;11.82;96.94;101630.25;5075479;28;19974;-50
2021/10/15 09:22:06;;;;;;;;;;;;;;;11.81;98.21;101633.00;5107171;28;19931;-51
2021/10/15 09:24:34;;;;;;;;;;;;;;;11.86;97.54;101641.47;5076183;28;19974;-50
2021/10/15 09:27:09;;;;;;;;;;;;;;;11.94;98.05;101644.56;5105055;28;19924;-49
2021/10/15 09:29:45;;;;;;;;;;;;;;;12.09;98.40;101644.59;5073523;28;19935;-51
2021/10/15 09:32:12;;;;;;;;;;;;;;;12.20;96.27;101644.78;5074181;28;19924;-52
2021/10/15 09:34:42;;;;;;;;;;;;;;;12.27;94.87;101646.13;5073126;28;19986;-50
2021/10/15 09:37:10;;;;;;;;;;;;;;;12.23;95.11;101651.66;5073552;28;20386;-48
2021/10/15 09:39:37;;;;;;;;;;;;;;;12.22;93.52;101653.47;5091143;28;19947;-50
2021/10/15 09:42:04;;;;;;;;;;;;;;;12.21;95.09;101664.13;5107536;28;19931;-48
2021/10/15 09:44:31;;;;;;;;;;;;;;;12.23;94.62;101656.94;5070754;28;19946;-48
2021/10/15 09:47:11;;;;;;;;;;;;;;;12.40;93.94;101663.88;5073374;28;19924;-49
2021/10/15 09:49:48;;;;;;;;;;;;;;;12.62;91.82;101669.53;5107765;28;19924;-49
2021/10/15 09:52:34;;;;;;;;;;;;;;;13.20;90.34;101664.25;5075415;28;19924;-49
2021/10/15 09:55:03;;;;;;;;;;;;;;;13.39;90.12;101674.53;5075480;28;19974;-56
2021/10/15 09:57:31;;;;;;;;;;;;;;;13.76;87.77;101674.78;5075605;28;20395;-57
2021/10/15 09:59:58;;;;;;;;;;;;;;;14.05;86.09;101684.38;5104935;28;19925;-56
2021/10/15 10:02:25;;;;;;;;;;;;;;;14.48;86.15;101686.75;5071360;28;20269;-57
2021/10/15 10:04:52;;;;;;;;;;;;;;;14.85;84.37;101686.91;5106906;28;19939;-56
2021/10/15 10:07:19;;;;;;;;;;;;;;;15.01;80.65;101687.53;5104373;28;19924;-56
2021/10/15 10:09:46;;;;;;;;;;;;;;;15.26;82.19;101682.28;5073759;28;20354;-57
2021/10/15 10:12:12;;;;;;;;;;;;;;;15.43;79.00;101681.06;5074983;28;19925;-58
2021/10/15 10:14:39;;;;;;;;;;;;;;;15.09;79.86;101683.47;5107482;28;20360;-57
2021/10/15 10:17:08;;;;;;;;;;;;;;;15.54;77.42;101689.06;5070935;28;20343;-56
2021/10/15 10:19:36;;;;;;;;;;;;;;;15.43;79.21;101689.84;5105053;28;20279;-56
2021/10/15 10:22:03;;;;;;;;;;;;;;;15.00;77.45;101695.59;5107080;28;19977;-58
2021/10/15 10:24:31;;;;;;;;;;;;;;;14.99;78.12;101702.66;5107409;28;19930;-57
2021/10/15 10:26:59;;;;;;;;;;;;;;;15.38;76.84;101698.16;5106995;28;19928;-57
2021/10/15 10:29:26;;;;;;;;;;;;;;;15.85;75.99;101705.41;5106696;28;19924;-58
2021/10/15 10:31:53;;;;;;;;;;;;;;;15.85;74.32;101705.41;5072162;28;19951;-56
2021/10/15 10:34:24;;;;;;;;;;;;;;;15.90;75.42;101705.94;5088201;28;19963;-58
2021/10/15 10:37:02;;;;;;;;;;;;;;;16.50;73.64;101706.72;5073985;28;19931;-57
2021/10/15 10:39:48;;;;;;;;;;;;;;;17.32;71.52;101700.38;5073533;28;19959;-57
2021/10/15 10:42:18;;;;;;;;;;;;;;;17.20;67.06;101701.34;5103476;28;20273;-57
2021/10/15 10:44:47;;;;;;;;;;;;;;;17.27;65.81;101707.84;5069885;28;19974;-57
2021/10/15 10:47:18;;;;;;;;;;;;;;;17.45;66.05;101710.00;5106760;28;19931;-56
2021/10/15 10:50:00;;;;;;;;;;;;;;;17.70;62.60;101699.06;5106977;28;19966;-57
2021/10/15 10:52:27;;;;;;;;;;;;;;;18.36;62.70;101708.72;5074175;28;19928;-57
2021/10/15 10:54:54;;;;;;;;;;;;;;;18.89;59.93;101704.28;5073965;28;19924;-56
2021/10/15 10:57:25;;;;;;;;;;;;;;;18.81;61.83;101720.06;5103271;28;19924;-58
2021/10/15 10:59:53;;;;;;;;;;;;;;;18.29;59.44;101714.69;5071845;28;20192;-57
2021/10/15 11:02:21;;;;;;;;;;;;;;;18.67;57.50;101707.94;5073130;28;19954;-57
2021/10/15 11:04:50;;;;;;;;;;;;;;;17.52;57.43;101706.75;5106042;28;19924;-57
2021/10/15 11:07:17;;;;;;;;;;;;;;;17.27;60.58;101722.97;5073996;28;19925;-57
2021/10/15 11:09:48;;;;;;;;;;;;;;;16.98;61.56;101729.63;5072884;28;19928;-56
2021/10/15 11:12:34;;;;;;;;;;;;;;;16.59;60.03;101731.72;5070841;28;19924;-57
2021/10/15 11:15:11;;;;;;;;;;;;;;;16.32;59.87;101732.88;5067971;28;19973;-58
2021/10/15 11:17:37;;;;;;;;;;;;;;;16.29;60.34;101735.75;5106049;28;19928;-58
2021/10/15 11:20:23;;;;;;;;;;;;;;;15.89;60.75;101736.91;5073892;28;19973;-58
2021/10/15 11:23:02;;;;;;;;;;;;;;;15.83;61.10;101741.84;5071661;28;19928;-57
2021/10/15 11:25:37;;;;;;;;;;;;;;;16.37;61.30;101744.00;5070925;28;19924;-56
2021/10/15 11:28:24;;;;;;;;;;;;;;;17.26;59.69;101743.41;5071721;28;20371;-58
2021/10/15 11:30:54;;;;;;;;;;;;;;;17.94;56.93;101748.59;5073190;28;19925;-57
2021/10/15 11:33:21;;;;;;;;;;;;;;;18.46;55.47;101751.41;5073501;28;20383;-57
2021/10/15 11:35:52;;;;;;;;;;;;;;;18.59;55.85;101745.88;5071244;28;19932;-49
2021/10/15 11:38:25;;;;;;;;;;;;;;;18.82;52.30;101748.41;5069817;28;19928;-48
2021/10/15 11:40:55;;;;;;;;;;;;;;;19.35;50.40;101750.88;5071840;28;19970;-48
2021/10/15 11:43:28;;;;;;;;;;;;;;;19.57;51.27;101752.47;5105658;28;20387;-50
2021/10/15 11:46:08;;;;;;;;;;;;;;;18.94;50.28;101752.69;5073382;28;19925;-57
2021/10/15 11:48:40;;;;;;;;;;;;;;;18.60;53.23;101760.88;5073309;28;20019;-48
2021/10/15 11:51:08;;;;;;;;;;;;;;;18.16;53.25;101758.31;5073525;28;19974;-49
2021/10/15 11:53:37;;;;;;;;;;;;;;;17.61;53.37;101768.97;5073128;28;19925;-50
2021/10/15 11:56:05;;;;;;;;;;;;;;;16.46;52.11;101768.97;5073230;28;20304;-52
2021/10/15 11:58:31;;;;;;;;;;;;;;;16.19;52.32;101777.22;5105346;28;19925;-51
2021/10/15 12:00:59;;;;;;;;;;;;;;;16.65;50.54;101776.41;5102418;28;19925;-47
2021/10/15 12:03:27;;;;;;;;;;;;;;;17.49;51.20;101778.78;5102494;28;20039;-46
2021/10/15 12:05:54;;;;;;;;;;;;;;;17.89;48.75;101774.72;5072991;28;19924;-50
2021/10/15 12:08:21;;;;;;;;;;;;;;;18.82;49.00;101775.88;5088209;28;20019;-51
2021/10/15 12:10:47;;;;;;;;;;;;;;;18.79;47.07;101776.16;5105556;28;20292;-50
2021/10/15 12:13:14;;;;;;;;;;;;;;;19.22;47.83;101782.28;5105243;28;20379;-49
2021/10/15 12:15:41;;;;;;;;;;;;;;;19.03;48.55;101777.69;5073017;28;20295;-49
2021/10/15 12:18:08;;;;;;;;;;;;;;;19.87;48.50;101776.59;5070208;28;19934;-49
2021/10/15 12:20:35;;;;;;;;;;;;;;;19.98;45.66;101775.63;5069902;28;19967;-52
2021/10/15 12:23:02;;;;;;;;;;;;;;;19.82;45.51;101774.31;5072973;28;19975;-47
2021/10/15 12:25:29;;;;;;;;;;;;;;;19.68;45.78;101770.19;5088024;28;19924;-50
2021/10/15 12:27:56;;;;;;;;;;;;;;;20.22;44.80;101767.19;5072243;28;19928;-48
2021/10/15 12:30:25;;;;;;;;;;;;;;;20.40;42.82;101767.34;5068909;28;20329;-49
2021/10/15 12:32:52;;;;;;;;;;;;;;;19.76;42.43;101783.69;5070110;28;20394;-50
2021/10/15 12:35:21;;;;;;;;;;;;;;;18.73;45.80;101784.66;5072862;28;20274;-51
2021/10/15 12:37:51;;;;;;;;;;;;;;;18.11;48.78;101787.13;5072312;28;19925;-51
2021/10/15 12:40:25;;;;;;;;;;;;;;;18.07;49.56;101789.19;5070361;28;20379;-50
2021/10/15 12:42:54;;;;;;;;;;;;;;;17.39;51.41;101802.59;5088564;28;20386;-48
2021/10/15 12:45:31;;;;;;;;;;;;;;;17.34;52.16;101803.91;5112970;28;20395;-51
2021/10/15 12:47:57;;;;;;;;;;;;;;;17.05;51.83;101807.88;5111784;28;19928;-47
2021/10/15 12:50:25;;;;;;;;;;;;;;;17.34;52.49;101823.41;5109014;28;19932;-52
2021/10/15 12:52:51;;;;;;;;;;;;;;;17.24;50.61;101814.44;5100942;28;20347;-51
2021/10/15 12:55:25;;;;;;;;;;;;;;;17.01;50.80;101813.56;5092310;28;19977;-48